< < Back
Terminal Aerodrome Forecast


Current Version              Previous Versions:   1  2  3  4  5  6  7  8  9  

Terminal Aerodrome Forecast

799
FTUS42 KFFC 161100
TAFFTY
TAF
KFTY 161128Z 1612/1712 VRB03KT 6SM BR OVC005
      TEMPO 1612/1615 5SM -RA BR BKN007
     FM161500 30006KT P6SM VCSH BKN015
     FM161700 33008KT P6SM SCT025 BKN050
     FM161900 33009KT P6SM SCT050 BKN120
     FM170200 34005KT P6SM SCT120 BKN250=

Latest METAR

778
SAUS70 KWBC 170700 RRM
MTRFTY
METAR KFTY 170653Z 00000KT 10SM CLR 22/19 A2999 RMK AO2 SLP145
T02170194


USA.gov is the U.S. government's official web portal to all federal, state and local government web resources and services.